Time;durP1;ratioP1;P1;durP2;ratioP2;P2;SDS_P1;SDS_P2;PMS_P1;PMS_P2;Temp;Humidity;BMP_temperature;BMP_pressure;BME280_temperature;BME280_humidity;BME280_pressure;Samples;Min_cycle;Max_cycle;Signal;HPM_P1;HPM_P2
2022/07/08 00:01:16;;;;;;;0.50;0.50;;;17.50;76.10;;;17.58;62.78;95325.00;4946430;28;20232;-85
2022/07/08 00:03:43;;;;;;;0.55;0.55;;;17.60;76.30;;;17.59;62.56;95325.84;4962369;28;20293;-84
2022/07/08 00:06:11;;;;;;;0.60;0.60;;;17.50;76.30;;;17.57;62.70;95320.72;4959636;28;20272;-85
2022/07/08 00:08:38;;;;;;;0.50;0.50;;;17.60;76.40;;;17.59;62.36;95325.84;4977570;28;20205;-84
2022/07/08 00:11:05;;;;;;;0.50;0.50;;;17.60;76.50;;;17.59;62.82;95325.84;4960606;28;20221;-85
2022/07/08 00:13:32;;;;;;;0.50;0.50;;;17.60;76.40;;;17.59;62.19;95325.84;4961300;28;20208;-84
2022/07/08 00:16:00;;;;;;;0.50;0.50;;;17.50;76.40;;;17.59;62.98;95325.84;4963342;28;20225;-84
2022/07/08 00:18:27;;;;;;;0.60;0.60;;;17.50;76.50;;;17.59;63.07;95326.63;4963298;28;20205;-84
2022/07/08 00:20:54;;;;;;;0.57;0.57;;;17.60;76.60;;;17.62;62.71;95324.56;4978310;28;20230;-84
2022/07/08 00:23:21;;;;;;;0.50;0.50;;;17.60;76.70;;;17.58;62.62;95318.91;4963614;28;20209;-84
2022/07/08 00:25:48;;;;;;;0.50;0.50;;;17.60;76.60;;;17.59;62.87;95326.63;4979355;28;20629;-85
2022/07/08 00:28:16;;;;;;;0.40;0.40;;;17.60;76.80;;;17.66;62.56;95331.81;4979424;28;20570;-85
2022/07/08 00:30:43;;;;;;;0.50;0.50;;;17.60;76.80;;;17.65;62.97;95324.94;4974888;28;20248;-85
2022/07/08 00:33:10;;;;;;;0.55;0.55;;;17.60;77.00;;;17.68;62.84;95334.28;4963467;28;20189;-84
2022/07/08 00:35:37;;;;;;;0.60;0.60;;;17.60;76.90;;;17.70;62.48;95337.50;4979131;28;20682;-85
2022/07/08 00:38:05;;;;;;;0.50;0.50;;;17.60;76.90;;;17.71;62.88;95344.41;4960446;28;20596;-84
2022/07/08 00:40:34;;;;;;;0.50;0.50;;;17.60;77.00;;;17.69;63.05;95338.56;4979071;28;20209;-85
2022/07/08 00:43:01;;;;;;;0.50;0.50;;;17.60;77.00;;;17.71;62.94;95341.75;4976233;28;20216;-83
2022/07/08 00:45:28;;;;;;;0.50;0.50;;;17.60;77.00;;;17.68;64.17;95340.38;4975655;28;20222;-85
2022/07/08 00:47:55;;;;;;;0.50;0.50;;;17.60;77.20;;;17.71;64.03;95347.06;4943002;28;20296;-85
2022/07/08 00:50:23;;;;;;;0.50;0.50;;;17.70;77.10;;;17.70;63.63;95346.28;4955847;28;20234;-85
2022/07/08 00:52:50;;;;;;;0.60;0.60;;;17.70;77.20;;;17.70;63.81;95350.75;4959099;28;20675;-85
2022/07/08 00:55:17;;;;;;;0.50;0.50;;;17.70;77.20;;;17.71;63.11;95341.75;4943509;28;20222;-85
2022/07/08 00:57:45;;;;;;;0.50;0.50;;;17.60;77.10;;;17.72;63.42;95354.81;4980913;28;20253;-85
2022/07/08 01:00:12;;;;;;;0.57;0.57;;;17.70;77.20;;;17.66;63.11;95337.13;4963072;28;20229;-85
2022/07/08 01:02:39;;;;;;;0.50;0.50;;;17.70;77.10;;;17.71;63.30;95355.03;4975425;28;20193;-85
2022/07/08 01:05:08;;;;;;;0.60;0.60;;;17.70;77.10;;;17.73;63.14;95353.75;4978488;28;20197;-85
2022/07/08 01:07:35;;;;;;;0.47;0.47;;;17.70;77.00;;;17.73;63.13;95352.97;4960635;28;20205;-84
2022/07/08 01:10:04;;;;;;;0.60;0.60;;;17.70;76.90;;;17.74;62.98;95354.59;4945588;28;20229;-85
2022/07/08 01:12:31;;;;;;;0.50;0.50;;;17.60;76.90;;;17.74;62.87;95354.59;4960103;28;20644;-84
2022/07/08 01:14:59;;;;;;;0.50;0.50;;;17.70;76.90;;;17.68;62.92;95348.34;4974957;28;20197;-84
2022/07/08 01:17:45;;;;;;;0.50;0.50;;;17.70;77.00;;;17.67;63.40;95359.97;4945248;28;20664;-84
2022/07/08 01:20:13;;;;;;;0.55;0.55;;;17.70;77.20;;;17.67;63.43;95362.63;4976056;28;20221;-84
2022/07/08 01:22:42;;;;;;;0.50;0.50;;;17.70;77.00;;;17.67;63.65;95369.78;4941567;28;20229;-84
2022/07/08 01:25:10;;;;;;;0.50;0.50;;;17.70;77.20;;;17.62;63.41;95359.84;4959231;28;20240;-86
2022/07/08 01:27:37;;;;;;;0.50;0.50;;;17.60;77.20;;;17.62;63.19;95359.84;4942472;28;20190;-87
2022/07/08 01:30:06;;;;;;;0.60;0.60;;;17.70;77.20;;;17.61;63.13;95358.22;4944279;28;20226;-86
2022/07/08 01:32:37;;;;;;;0.50;0.50;;;17.60;77.20;;;17.59;63.61;95365.63;4962315;28;20213;-86
2022/07/08 01:35:05;;;;;;;0.60;0.60;;;17.50;77.30;;;17.55;63.55;95356.47;4956407;28;20257;-87
2022/07/08 01:37:32;;;;;;;0.50;0.50;;;17.50;77.30;;;17.53;63.18;95367.31;4971884;28;20197;-87
2022/07/08 01:39:59;;;;;;;0.40;0.40;;;17.50;77.30;;;17.49;63.69;95368.81;4962606;28;20603;-87
2022/07/08 01:42:26;;;;;;;0.50;0.50;;;17.50;77.40;;;17.51;63.78;95369.38;4958267;28;20210;-87
2022/07/08 01:44:55;;;;;;;0.50;0.50;;;17.40;77.50;;;17.49;63.36;95370.63;4958938;28;20267;-88
2022/07/08 01:47:22;;;;;;;0.50;0.50;;;17.40;77.50;;;17.50;63.46;95374.91;4945340;28;20213;-87
2022/07/08 01:49:49;;;;;;;0.57;0.57;;;17.40;77.50;;;17.49;63.79;95381.25;4958586;28;20225;-87
2022/07/08 01:52:16;;;;;;;0.55;0.55;;;17.40;77.60;;;17.45;63.80;95380.88;4975527;28;20630;-88
2022/07/08 01:54:43;;;;;;;0.60;0.60;;;17.50;77.70;;;17.43;63.59;95383.75;4976432;28;20198;-86
2022/07/08 01:57:13;;;;;;;0.50;0.50;;;17.40;77.80;;;17.42;63.52;95390.09;4978092;28;20217;-87
2022/07/08 01:59:46;;;;;;;0.50;0.50;;;17.40;77.70;;;17.41;63.75;95395.63;4978631;28;20253;-87
2022/07/08 02:02:15;;;;;;;0.50;0.50;;;17.30;77.90;;;17.40;63.85;95399.31;4961147;28;20713;-87
2022/07/08 02:04:43;;;;;;;0.50;0.50;;;17.40;78.60;;;17.39;63.74;95405.63;4942648;28;20198;-87
2022/07/08 02:07:11;;;;;;;0.60;0.60;;;17.40;77.80;;;17.40;63.98;95402.75;4993792;28;20213;-86
2022/07/08 02:09:38;;;;;;;0.50;0.50;;;17.30;77.80;;;17.37;63.77;95402.38;4977381;28;20738;-86
2022/07/08 02:12:20;;;;;;;0.50;0.50;;;17.30;77.80;;;17.39;63.71;95405.63;4974131;28;20225;-87
2022/07/08 02:15:01;;;;;;;0.57;0.57;;;17.30;77.80;;;17.39;63.39;95416.25;4948398;28;20656;-86
2022/07/08 02:17:31;;;;;;;0.60;0.60;;;17.30;77.90;;;17.35;64.09;95410.56;4943452;28;20281;-86
2022/07/08 02:19:59;;;;;;;0.55;0.55;;;17.40;78.00;;;17.25;64.17;95407.63;4979700;28;20195;-86
2022/07/08 02:22:26;;;;;;;0.57;0.57;;;17.30;77.90;;;17.28;64.37;95409.84;4969560;28;20269;-86
2022/07/08 02:24:54;;;;;;;0.60;0.60;;;17.30;77.90;;;17.19;64.46;95411.97;4944194;28;20198;-86
2022/07/08 02:27:21;;;;;;;0.50;0.50;;;17.20;77.80;;;17.18;64.21;95426.25;4976771;28;20652;-85
2022/07/08 02:29:50;;;;;;;0.68;0.68;;;17.20;77.80;;;17.12;64.45;95427.97;4977004;28;20222;-85
2022/07/08 02:32:18;;;;;;;0.60;0.60;;;17.20;77.90;;;17.05;64.81;95427.22;4954012;28;20221;-86
2022/07/08 02:34:45;;;;;;;0.50;0.50;;;17.10;78.10;;;16.96;65.41;95428.53;4961242;28;20213;-86
2022/07/08 02:37:13;;;;;;;0.60;0.60;;;17.00;78.00;;;16.88;64.92;95436.72;4961066;28;20254;-86
2022/07/08 02:39:41;;;;;;;0.50;0.50;;;17.00;78.20;;;16.81;64.86;95444.75;4977254;28;20655;-85
2022/07/08 02:42:11;;;;;;;0.60;0.60;;;16.90;78.30;;;16.74;65.41;95451.94;4974024;28;20283;-87
2022/07/08 02:44:38;;;;;;;0.60;0.60;;;16.80;78.50;;;16.61;65.53;95439.59;4960850;28;20240;-85
2022/07/08 02:47:06;;;;;;;0.50;0.50;;;16.70;78.60;;;16.55;65.30;95451.06;4976903;28;20229;-86
2022/07/08 02:49:33;;;;;;;0.50;0.50;;;16.70;78.80;;;16.47;65.53;95454.81;4977182;28;20224;-85
2022/07/08 02:52:01;;;;;;;0.50;0.50;;;16.60;78.90;;;16.37;65.61;95457.94;4971368;28;20233;-86
2022/07/08 02:54:28;;;;;;;0.60;0.60;;;16.50;78.90;;;16.31;65.93;95466.72;4965082;28;20213;-86
2022/07/08 02:56:55;;;;;;;0.70;0.70;;;16.40;79.10;;;16.24;65.76;95461.47;4976897;28;20227;-86
2022/07/08 02:59:22;;;;;;;0.40;0.40;;;16.40;79.10;;;16.17;66.11;95471.28;4960722;28;20233;-86
2022/07/08 03:01:50;;;;;;;0.50;0.50;;;16.30;79.10;;;16.12;65.91;95473.75;4952231;28;20229;-86
2022/07/08 03:04:17;;;;;;;0.60;0.60;;;16.20;79.00;;;16.06;65.92;95488.63;4957672;28;20212;-86
2022/07/08 03:06:44;;;;;;;0.52;0.52;;;16.20;79.00;;;16.02;66.63;95490.09;4960936;28;20217;-86
2022/07/08 03:09:11;;;;;;;0.60;0.60;;;16.20;79.30;;;15.99;66.25;95498.44;4964159;28;20197;-86
2022/07/08 03:11:39;;;;;;;0.50;0.50;;;16.10;79.40;;;15.96;66.27;95510.25;4976848;28;20236;-86
2022/07/08 03:14:06;;;;;;;0.50;0.50;;;16.00;79.60;;;15.94;66.67;95508.84;4972849;28;20670;-85
2022/07/08 03:16:35;;;;;;;0.50;0.50;;;16.00;79.80;;;15.92;66.75;95503.78;4980793;28;20223;-86
2022/07/08 03:19:02;;;;;;;0.60;0.60;;;15.90;80.00;;;15.90;66.16;95508.47;4964145;28;20204;-86
2022/07/08 03:21:30;;;;;;;0.50;0.50;;;15.90;80.00;;;15.88;66.77;95512.34;4979676;28;20236;-86
2022/07/08 03:23:57;;;;;;;0.60;0.60;;;15.90;80.10;;;15.88;66.78;95513.16;4983120;28;20193;-86
2022/07/08 03:26:24;;;;;;;0.60;0.60;;;15.90;80.20;;;15.87;66.63;95516.00;4966972;28;20221;-86
2022/07/08 03:28:51;;;;;;;0.60;0.60;;;15.90;80.30;;;15.86;66.86;95520.50;4966651;28;20317;-86
2022/07/08 03:31:18;;;;;;;0.77;0.77;;;15.90;80.40;;;15.86;66.63;95517.84;4978818;28;20243;-86
2022/07/08 03:33:46;;;;;;;0.60;0.60;;;15.80;80.40;;;15.86;66.52;95527.63;4983040;28;20248;-86
2022/07/08 03:36:13;;;;;;;0.70;0.70;;;15.80;80.50;;;15.87;66.75;95529.22;4982694;28;20251;-86
2022/07/08 03:38:40;;;;;;;0.60;0.60;;;15.90;80.60;;;15.84;66.99;95530.47;4963669;28;20235;-86
2022/07/08 03:41:19;;;;;;;0.60;0.60;;;15.80;80.60;;;15.77;66.95;95533.13;4965655;28;20233;-87
2022/07/08 03:43:48;;;;;;;0.60;0.60;;;15.80;80.50;;;15.76;66.58;95538.59;4984506;28;20220;-87
2022/07/08 03:46:16;;;;;;;0.75;0.75;;;15.80;81.20;;;15.74;66.64;95552.03;4971749;28;20629;-87
2022/07/08 03:48:43;;;;;;;0.60;0.60;;;15.80;80.40;;;15.71;66.62;95560.41;4963845;28;20216;-87
2022/07/08 03:51:11;;;;;;;0.80;0.80;;;15.70;80.30;;;15.65;66.92;95563.88;4962124;28;20233;-87
2022/07/08 03:53:38;;;;;;;0.50;0.50;;;15.70;81.20;;;15.62;66.36;95566.91;4963988;28;20656;-86
2022/07/08 03:56:06;;;;;;;0.50;0.50;;;15.70;80.30;;;15.55;67.37;95568.75;4963283;28;20228;-87
2022/07/08 03:58:34;;;;;;;0.60;0.60;;;15.60;80.20;;;15.52;67.21;95570.00;4955439;28;20201;-87
2022/07/08 04:01:03;;;;;;;0.70;0.70;;;15.60;80.30;;;15.48;67.19;95571.44;4974282;28;20292;-87
2022/07/08 04:03:30;;;;;;;0.60;0.60;;;15.60;80.30;;;15.46;67.11;95576.09;4947593;28;20573;-84
2022/07/08 04:05:58;;;;;;;0.60;0.60;;;15.50;80.40;;;15.41;66.86;95583.84;4947645;28;20229;-87
2022/07/08 04:08:26;;;;;;;0.77;0.77;;;15.50;80.30;;;15.40;66.75;95580.38;4963395;28;20212;-87
2022/07/08 04:10:54;;;;;;;0.60;0.60;;;15.50;80.50;;;15.40;66.82;95593.59;4942091;28;20741;-86
2022/07/08 04:13:23;;;;;;;0.60;0.60;;;15.40;80.50;;;15.41;66.88;95594.41;4966155;28;20224;-88
2022/07/08 04:15:51;;;;;;;0.60;0.60;;;15.50;80.70;;;15.42;67.22;95603.97;4946902;28;20218;-88
2022/07/08 04:18:19;;;;;;;0.70;0.70;;;15.40;80.80;;;15.42;67.07;95607.44;4945065;28;20210;-87
2022/07/08 04:20:46;;;;;;;0.50;0.50;;;15.40;80.80;;;15.42;66.86;95603.97;4951236;28;20227;-88
2022/07/08 04:23:14;;;;;;;0.60;0.60;;;15.40;80.80;;;15.42;66.90;95618.00;4955925;28;20296;-87
2022/07/08 04:25:41;;;;;;;0.60;0.60;;;15.40;80.80;;;15.43;66.64;95618.81;4960448;28;20222;-88
2022/07/08 04:28:08;;;;;;;0.60;0.60;;;15.40;80.70;;;15.41;66.77;95613.72;4962154;28;20263;-88
2022/07/08 04:30:35;;;;;;;0.50;0.50;;;15.40;80.70;;;15.41;66.88;95621.66;4958579;28;20237;-88
2022/07/08 04:33:03;;;;;;;0.60;0.60;;;15.40;80.60;;;15.34;66.96;95620.84;4944919;28;20210;-88
2022/07/08 04:35:30;;;;;;;0.60;0.60;;;15.40;80.60;;;15.37;66.99;95638.94;4944281;28;20226;-88
2022/07/08 04:37:57;;;;;;;0.70;0.70;;;15.40;80.60;;;15.35;67.33;95631.19;4949701;28;20206;-88
2022/07/08 04:40:28;;;;;;;0.70;0.70;;;15.40;80.60;;;15.32;67.04;95636.91;4946991;28;20463;-87
2022/07/08 04:42:56;;;;;;;0.60;0.60;;;15.40;80.60;;;15.33;66.74;95638.53;4960309;28;20190;-87
2022/07/08 04:45:23;;;;;;;0.50;0.50;;;15.40;80.60;;;15.36;67.04;95637.31;4944168;28;20225;-88
2022/07/08 04:47:52;;;;;;;0.70;0.70;;;15.40;80.60;;;15.34;66.70;95639.34;4947341;28;20197;-89
2022/07/08 04:50:20;;;;;;;0.60;0.60;;;15.40;80.50;;;15.35;67.00;95635.69;4959876;28;20245;-88
2022/07/08 04:52:48;;;;;;;0.60;0.60;;;15.40;80.60;;;15.36;66.75;95645.25;4960198;28;20221;-88
2022/07/08 04:55:28;;;;;;;0.57;0.57;;;15.30;80.60;;;15.33;66.92;95635.91;4978316;28;20222;-88
2022/07/08 04:57:57;;;;;;;0.55;0.55;;;15.40;81.30;;;15.32;66.81;95647.50;4948036;28;20228;-87
2022/07/08 05:00:25;;;;;;;0.70;0.70;;;15.40;80.50;;;15.33;66.77;95654.41;4959714;28;20229;-88
2022/07/08 05:02:52;;;;;;;0.60;0.60;;;15.40;80.40;;;15.33;66.89;95653.56;4962428;28;20213;-88
2022/07/08 05:05:20;;;;;;;0.55;0.55;;;15.30;80.40;;;15.32;66.80;95647.50;4962256;28;20790;-88
2022/07/08 05:07:50;;;;;;;0.52;0.52;;;15.30;80.40;;;15.32;66.42;95659.91;4943686;28;20829;-88
2022/07/08 05:10:21;;;;;;;0.70;0.70;;;15.30;80.30;;;15.30;66.71;95654.78;4963206;28;20235;-89
2022/07/08 05:12:49;;;;;;;0.50;0.50;;;15.40;80.40;;;15.34;66.48;95661.31;4956779;28;20202;-88
2022/07/08 05:15:17;;;;;;;0.60;0.60;;;15.40;80.30;;;15.37;66.53;95668.03;4971915;28;20253;-89
2022/07/08 05:17:45;;;;;;;0.70;0.70;;;15.40;80.30;;;15.37;66.32;95658.25;4969276;28;20198;-88
2022/07/08 05:20:12;;;;;;;0.60;0.60;;;15.50;80.30;;;15.42;66.57;95680.66;4959178;28;20718;-89
2022/07/08 05:22:40;;;;;;;0.50;0.50;;;15.40;80.10;;;15.42;66.35;95678.00;4953349;28;20248;-89
2022/07/08 05:25:09;;;;;;;0.60;0.60;;;15.40;80.10;;;15.43;66.41;95676.97;4947674;28;20309;-89
2022/07/08 05:27:37;;;;;;;0.60;0.60;;;15.40;80.00;;;15.43;66.13;95679.59;4961664;28;20193;-88
2022/07/08 05:30:07;;;;;;;0.60;0.60;;;15.40;80.00;;;15.44;65.99;95679.41;4959634;28;20288;-88
2022/07/08 05:32:35;;;;;;;0.60;0.60;;;15.50;80.00;;;15.42;65.67;95684.09;4937967;28;20292;-88
2022/07/08 05:35:06;;;;;;;0.60;0.60;;;15.50;79.90;;;15.41;65.78;95674.53;4959310;28;20252;-89
2022/07/08 05:37:37;;;;;;;0.60;0.60;;;15.40;79.70;;;15.40;66.00;95680.81;4967259;28;20198;-89
2022/07/08 05:40:08;;;;;;;0.60;0.60;;;15.40;79.70;;;15.40;65.81;95686.13;4958844;28;20198;-89
2022/07/08 05:42:35;;;;;;;0.60;0.60;;;15.50;79.70;;;15.43;65.90;95695.47;4958312;28;20247;-89
2022/07/08 05:45:04;;;;;;;0.73;0.73;;;15.50;79.70;;;15.43;65.86;95692.81;4959869;28;20237;-89
2022/07/08 05:47:31;;;;;;;0.60;0.60;;;15.40;79.60;;;15.45;65.68;95694.28;4960734;28;20283;-89
2022/07/08 05:49:58;;;;;;;0.60;0.60;;;15.50;79.60;;;15.47;65.86;95696.69;4976720;28;20209;-89
2022/07/08 05:52:26;;;;;;;0.70;0.70;;;15.50;79.60;;;15.49;65.99;95697.28;4977749;28;20304;-89
2022/07/08 05:54:53;;;;;;;0.52;0.52;;;15.50;79.60;;;15.49;65.49;95699.94;4944457;28;20204;-89
2022/07/08 05:57:20;;;;;;;0.60;0.60;;;15.50;79.60;;;15.51;65.72;95708.50;4961565;28;20208;-88
2022/07/08 05:59:48;;;;;;;0.60;0.60;;;15.50;79.30;;;15.48;65.39;95715.00;4945697;28;20212;-88
2022/07/08 06:02:15;;;;;;;0.60;0.60;;;15.50;79.20;;;15.47;65.68;95716.00;4960598;28;20435;-89
2022/07/08 06:04:42;;;;;;;0.55;0.55;;;15.50;79.10;;;15.50;65.36;95717.44;4976143;28;20208;-88
2022/07/08 06:07:09;;;;;;;0.50;0.50;;;15.50;79.20;;;15.45;65.59;95711.94;4976059;28;20217;-89
2022/07/08 06:09:37;;;;;;;0.45;0.45;;;15.60;79.00;;;15.50;65.42;95714.78;4976351;28;20287;-89
2022/07/08 06:12:05;;;;;;;0.55;0.55;;;15.60;79.10;;;15.51;65.43;95725.19;4976312;28;20235;-88
2022/07/08 06:14:32;;;;;;;0.50;0.50;;;15.50;78.90;;;15.51;65.28;95725.19;4976675;28;20189;-88
2022/07/08 06:16:59;;;;;;;0.60;0.60;;;15.60;78.90;;;15.52;65.40;95720.69;4977303;28;20246;-89
2022/07/08 06:19:26;;;;;;;0.70;0.70;;;15.60;78.70;;;15.53;65.19;95720.47;4953848;28;20256;-88
2022/07/08 06:21:53;;;;;;;0.50;0.50;;;15.70;78.90;;;15.57;65.73;95720.91;4931800;28;20228;-88
2022/07/08 06:24:20;;;;;;;0.60;0.60;;;15.70;79.00;;;15.60;65.29;95723.16;4977051;28;20202;-88
2022/07/08 06:26:48;;;;;;;0.55;0.55;;;15.60;78.60;;;15.62;65.11;95731.66;4957024;28;20226;-88
2022/07/08 06:29:15;;;;;;;0.50;0.50;;;15.70;78.60;;;15.65;65.03;95736.56;4961466;28;20205;-88
2022/07/08 06:31:42;;;;;;;0.60;0.60;;;15.70;78.60;;;15.65;65.01;95726.00;4945936;28;20242;-88
2022/07/08 06:34:09;;;;;;;0.50;0.50;;;15.70;78.60;;;15.67;65.26;95726.59;4958481;28;20649;-88
2022/07/08 06:36:36;;;;;;;0.50;0.50;;;15.70;79.40;;;15.68;64.93;95722.13;4941135;28;20229;-88
2022/07/08 06:39:04;;;;;;;0.52;0.52;;;15.80;78.70;;;15.72;65.01;95726.00;4942046;28;20202;-87
2022/07/08 06:41:31;;;;;;;0.50;0.50;;;15.90;78.80;;;15.74;65.11;95731.88;4970440;28;20244;-88
2022/07/08 06:43:58;;;;;;;0.40;0.40;;;15.80;78.70;;;15.78;65.27;95735.75;4953864;28;20202;-87
2022/07/08 06:46:26;;;;;;;0.70;0.70;;;16.00;79.70;;;15.76;64.99;95726.38;4957986;28;20232;-88
2022/07/08 06:48:53;;;;;;;0.50;0.50;;;15.90;78.80;;;15.84;65.04;95739.44;4926249;28;20206;-87
2022/07/08 06:51:21;;;;;;;0.50;0.50;;;16.00;78.90;;;15.88;64.90;95742.50;4949893;28;20232;-88
2022/07/08 06:56:34;;;;;;;0.50;0.50;;;16.00;78.80;;;15.93;64.62;95738.22;4960573;28;20222;-87
2022/07/08 06:59:01;;;;;;;0.60;0.60;;;16.10;78.90;;;16.00;64.87;95754.91;4958264;28;20202;-87
2022/07/08 07:01:28;;;;;;;0.60;0.60;;;16.10;79.00;;;16.00;64.23;95756.72;4957977;28;20316;-87
2022/07/08 07:03:55;;;;;;;0.50;0.50;;;16.20;78.50;;;16.05;64.10;95764.88;4973672;28;20201;-87
2022/07/08 07:06:23;;;;;;;0.50;0.50;;;16.20;78.30;;;16.03;63.80;95758.97;4973298;28;20250;-87
2022/07/08 07:08:50;;;;;;;0.50;0.50;;;16.30;78.00;;;16.10;64.32;95759.78;4957547;28;20232;-86
2022/07/08 07:11:17;;;;;;;0.50;0.50;;;16.30;78.20;;;16.18;64.22;95761.38;4971423;28;20233;-87
2022/07/08 07:13:46;;;;;;;0.60;0.60;;;16.30;78.40;;;16.23;64.37;95771.38;4925034;28;20590;-86
2022/07/08 07:16:14;;;;;;;0.50;0.50;;;16.40;78.20;;;16.29;64.22;95774.00;4954784;28;20244;-87
2022/07/08 07:18:41;;;;;;;0.60;0.60;;;16.40;78.30;;;16.35;64.03;95772.34;4941531;28;20204;-87
2022/07/08 07:21:09;;;;;;;0.50;0.50;;;16.50;78.20;;;16.32;63.99;95756.91;4941901;28;20221;-87
2022/07/08 07:23:37;;;;;;;0.50;0.50;;;16.60;78.00;;;16.44;63.83;95768.47;4993226;28;20284;-87
2022/07/08 07:26:04;;;;;;;0.50;0.50;;;16.60;78.00;;;16.46;63.59;95763.78;4942050;28;20680;-88
2022/07/08 07:28:32;;;;;;;0.77;0.77;;;16.60;77.80;;;16.55;63.50;95769.69;4956887;28;20202;-87
2022/07/08 07:30:59;;;;;;;0.57;0.57;;;16.70;77.90;;;16.62;63.51;95769.66;4953445;28;20222;-87
2022/07/08 07:33:27;;;;;;;0.50;0.50;;;16.70;78.00;;;16.69;63.47;95767.78;4958620;28;20664;-86
2022/07/08 07:35:55;;;;;;;0.50;0.50;;;16.80;77.90;;;16.79;63.39;95764.69;4967044;28;20250;-87
2022/07/08 07:38:22;;;;;;;0.40;0.40;;;16.90;77.80;;;16.91;63.40;95770.16;4941608;28;20296;-86
2022/07/08 07:40:49;;;;;;;0.50;0.50;;;17.00;78.00;;;16.97;63.33;95777.31;4925431;28;20309;-87
2022/07/08 07:43:16;;;;;;;0.50;0.50;;;17.10;77.70;;;16.99;62.93;95769.13;4959436;28;20197;-87
2022/07/08 07:45:43;;;;;;;0.50;0.50;;;17.10;77.40;;;17.01;62.82;95769.75;4972686;28;20222;-87
2022/07/08 07:48:11;;;;;;;0.50;0.50;;;17.20;77.30;;;17.08;62.72;95778.47;4976104;28;20280;-87
2022/07/08 07:50:39;;;;;;;0.50;0.50;;;17.20;77.00;;;17.12;62.60;95788.47;4960445;28;20301;-87
2022/07/08 07:53:07;;;;;;;0.50;0.50;;;17.30;77.00;;;17.16;62.79;95788.00;4960173;28;20193;-88
2022/07/08 07:55:34;;;;;;;0.50;0.50;;;17.30;76.90;;;17.11;61.67;95775.38;4968539;28;20740;-87
2022/07/08 07:58:01;;;;;;;0.50;0.50;;;17.40;76.50;;;17.08;61.32;95789.09;4980308;28;20239;-87
2022/07/08 08:00:28;;;;;;;0.50;0.50;;;17.40;77.00;;;17.12;62.20;95795.56;4967797;28;20247;-87
2022/07/08 08:02:56;;;;;;;0.52;0.52;;;17.30;76.20;;;17.12;62.17;95799.06;4945186;28;20205;-87
2022/07/08 08:05:24;;;;;;;0.50;0.50;;;17.30;76.20;;;17.09;61.65;95796.00;4965969;28;20240;-87
2022/07/08 08:07:51;;;;;;;0.50;0.50;;;17.30;76.00;;;17.12;61.94;95803.53;4975035;28;20200;-88
2022/07/08 08:10:18;;;;;;;0.50;0.50;;;17.40;76.20;;;17.10;61.90;95801.09;4949929;28;20691;-87
2022/07/08 08:12:45;;;;;;;0.55;0.55;;;17.40;76.30;;;17.11;61.75;95802.72;4964020;28;20229;-88
2022/07/08 08:15:13;;;;;;;0.50;0.50;;;17.30;76.10;;;17.11;61.78;95799.25;4945940;28;20225;-87
2022/07/08 08:17:43;;;;;;;0.50;0.50;;;17.40;76.00;;;17.09;61.45;95794.16;4960083;28;20194;-88
2022/07/08 08:20:12;;;;;;;0.50;0.50;;;17.40;76.00;;;17.07;61.67;95795.41;4944522;28;20233;-87
2022/07/08 08:22:39;;;;;;;0.50;0.50;;;17.30;76.00;;;17.09;61.89;95803.97;4970337;28;20226;-87
2022/07/08 08:25:27;;;;;;;0.50;0.50;;;17.30;76.00;;;17.09;61.65;95802.13;4973010;28;20287;-87
2022/07/08 08:27:56;;;;;;;0.50;0.50;;;17.30;75.90;;;17.09;62.00;95799.47;4959337;28;20583;-87
2022/07/08 08:30:23;;;;;;;0.50;0.50;;;17.30;76.10;;;17.09;61.89;95812.72;4960499;28;20233;-87
2022/07/08 08:32:51;;;;;;;0.70;0.70;;;17.30;76.30;;;17.12;61.41;95807.00;4959676;28;20232;-87
2022/07/08 08:35:18;;;;;;;0.50;0.50;;;17.30;75.70;;;17.09;61.42;95804.75;4966715;28;20220;-87
2022/07/08 08:37:46;;;;;;;0.50;0.50;;;17.40;76.00;;;17.09;61.61;95818.03;4942414;28;20214;-88
2022/07/08 08:40:14;;;;;;;0.60;0.60;;;17.40;75.80;;;17.12;61.77;95820.25;4958096;28;20225;-87
2022/07/08 08:42:43;;;;;;;0.50;0.50;;;17.40;75.90;;;17.16;61.93;95827.78;4954038;28;20210;-87
2022/07/08 08:45:10;;;;;;;0.60;0.60;;;17.40;76.70;;;17.16;61.93;95819.81;4959808;28;20226;-87
2022/07/08 08:47:37;;;;;;;0.50;0.50;;;17.40;76.80;;;17.20;61.83;95818.38;4966065;28;20193;-87
2022/07/08 08:52:56;;;;;;;0.52;0.52;;;17.50;75.70;;;17.17;61.48;95830.22;4973825;28;20439;-88
2022/07/08 08:55:29;;;;;;;0.40;0.40;;;17.50;75.40;;;17.15;61.78;95826.97;4939875;28;20225;-88
2022/07/08 08:58:04;;;;;;;0.47;0.47;;;17.50;75.40;;;17.22;61.94;95843.66;4978504;28;20718;-88
2022/07/08 09:00:33;;;;;;;0.50;0.50;;;17.50;75.90;;;17.24;61.43;95830.19;4970282;28;20248;-87
2022/07/08 09:03:02;;;;;;;0.50;0.50;;;17.50;75.70;;;17.28;61.79;95840.19;4958689;28;20285;-88
2022/07/08 09:05:30;;;;;;;0.40;0.40;;;17.60;75.90;;;17.30;61.82;95837.31;4964228;28;20257;-87
2022/07/08 09:07:57;;;;;;;0.50;0.50;;;17.60;75.80;;;17.30;60.94;95845.25;4971155;28;20289;-89
2022/07/08 09:10:26;;;;;;;0.50;0.50;;;17.60;75.50;;;17.27;61.56;95850.97;4956484;28;20316;-90
2022/07/08 09:13:14;;;;;;;0.52;0.52;;;17.60;75.60;;;17.25;61.58;95856.50;4949397;28;20281;-89
2022/07/08 09:15:48;;;;;;;0.60;0.60;;;17.50;75.20;;;17.22;61.56;95859.56;4952119;28;20244;-88
2022/07/08 09:18:18;;;;;;;0.60;0.60;;;17.50;75.40;;;17.17;61.69;95851.41;4943313;28;20213;-88
2022/07/08 09:20:53;;;;;;;0.55;0.55;;;17.50;75.30;;;17.13;61.56;95858.97;4927424;28;20218;-88
2022/07/08 09:23:33;;;;;;;0.50;0.50;;;17.50;75.40;;;17.08;61.23;95858.00;4967562;28;20192;-89
2022/07/08 09:26:06;;;;;;;0.50;0.50;;;17.40;74.90;;;16.97;60.84;95859.44;4960342;28;20614;-88
2022/07/08 09:28:43;;;;;;;0.60;0.60;;;17.40;74.90;;;16.88;61.10;95869.44;4978023;28;20211;-88
2022/07/08 09:31:14;;;;;;;0.40;0.40;;;17.30;74.80;;;16.85;61.77;95867.19;4975419;28;20228;-87
2022/07/08 09:33:43;;;;;;;0.50;0.50;;;17.30;75.10;;;16.86;61.64;95873.31;4958161;28;20212;-88
2022/07/08 09:36:11;;;;;;;0.57;0.57;;;17.20;75.00;;;16.87;61.85;95872.28;4943820;28;20680;-89
2022/07/08 09:38:40;;;;;;;0.50;0.50;;;17.20;75.40;;;16.87;61.84;95867.81;4946008;28;20203;-89
2022/07/08 09:41:12;;;;;;;0.50;0.50;;;17.20;75.50;;;16.92;61.72;95862.72;4942837;28;20230;-88
2022/07/08 09:43:48;;;;;;;0.50;0.50;;;17.30;75.50;;;17.05;62.09;95853.94;4952162;28;20214;-88
2022/07/08 09:46:16;;;;;;;0.50;0.50;;;17.30;75.40;;;17.15;61.35;95861.44;4960134;28;20221;-88
2022/07/08 09:48:44;;;;;;;0.40;0.40;;;17.40;75.40;;;17.23;61.48;95868.34;4961453;28;20202;-87
2022/07/08 09:51:15;;;;;;;0.43;0.43;;;17.50;75.60;;;17.28;61.29;95866.69;4956181;28;20245;-88
2022/07/08 09:53:43;;;;;;;0.50;0.50;;;17.60;75.30;;;17.33;61.18;95874.00;4976554;28;20201;-88
2022/07/08 09:56:10;;;;;;;0.50;0.50;;;17.60;75.30;;;17.39;61.07;95872.34;4958998;28;20225;-88
2022/07/08 09:58:38;;;;;;;0.50;0.50;;;17.70;75.30;;;17.41;61.18;95876.41;4978166;28;20260;-88
2022/07/08 10:01:07;;;;;;;0.50;0.50;;;17.70;75.10;;;17.41;61.13;95871.09;4964468;28;20283;-87
2022/07/08 10:03:35;;;;;;;0.40;0.40;;;17.80;75.00;;;17.40;60.36;95876.63;4961088;28;20213;-87
2022/07/08 10:06:04;;;;;;;0.50;0.50;;;17.70;74.80;;;17.42;60.76;95882.53;4976557;28;20222;-87
2022/07/08 10:08:32;;;;;;;0.47;0.47;;;17.70;75.00;;;17.42;60.67;95870.09;4976895;28;20193;-87
2022/07/08 10:11:06;;;;;;;0.40;0.40;;;17.70;74.90;;;17.50;60.74;95878.81;4982668;28;20304;-88
2022/07/08 10:13:34;;;;;;;0.60;0.60;;;17.80;75.00;;;17.49;60.46;95875.38;4954630;28;20469;-88
2022/07/08 10:16:09;;;;;;;0.50;0.50;;;17.80;75.00;;;17.53;60.46;95881.88;4947281;28;20225;-87
2022/07/08 10:18:44;;;;;;;0.50;0.50;;;17.80;74.80;;;17.56;60.75;95875.31;4973761;28;20193;-87
2022/07/08 10:21:17;;;;;;;0.45;0.45;;;17.90;74.90;;;17.63;60.41;95883.25;4971589;28;20661;-87
2022/07/08 10:23:51;;;;;;;0.50;0.50;;;17.90;74.70;;;17.69;60.89;95883.22;4944302;28;20238;-86
2022/07/08 10:26:28;;;;;;;0.50;0.50;;;18.00;75.00;;;17.73;60.49;95887.06;4958267;28;20227;-87
2022/07/08 10:29:11;;;;;;;0.60;0.60;;;18.00;75.00;;;17.79;61.15;95887.25;4954823;28;20251;-88
2022/07/08 10:31:48;;;;;;;0.50;0.50;;;18.00;74.90;;;17.86;60.53;95888.03;4976252;28;20221;-89